sensor_id;sensor_type;location;lat;lon;timestamp;pressure;altitude;pressure_sealevel;temperature;humidity
21658;BME280;10990;48.174;9.782;2023-11-19T00:00:42;93098.19;;;6.06;100.00
21658;BME280;10990;48.174;9.782;2023-11-19T00:03:08;93078.00;;;6.07;100.00
21658;BME280;10990;48.174;9.782;2023-11-19T00:05:34;93069.75;;;6.10;100.00
21658;BME280;10990;48.174;9.782;2023-11-19T00:08:00;93046.13;;;6.10;100.00
21658;BME280;10990;48.174;9.782;2023-11-19T00:10:26;93050.03;;;6.14;100.00
21658;BME280;10990;48.174;9.782;2023-11-19T00:12:55;93033.53;;;6.20;100.00
21658;BME280;10990;48.174;9.782;2023-11-19T00:15:21;93024.22;;;6.18;100.00
21658;BME280;10990;48.174;9.782;2023-11-19T00:17:48;93011.53;;;6.21;100.00
21658;BME280;10990;48.174;9.782;2023-11-19T00:20:15;93010.91;;;6.19;100.00
21658;BME280;10990;48.174;9.782;2023-11-19T00:22:42;93003.28;;;6.24;100.00
21658;BME280;10990;48.174;9.782;2023-11-19T00:25:08;92986.16;;;6.28;100.00
21658;BME280;10990;48.174;9.782;2023-11-19T00:27:34;92975.03;;;6.26;100.00
21658;BME280;10990;48.174;9.782;2023-11-19T00:30:04;92963.78;;;6.33;100.00
21658;BME280;10990;48.174;9.782;2023-11-19T00:32:30;92955.28;;;6.31;100.00
21658;BME280;10990;48.174;9.782;2023-11-19T00:34:56;92938.13;;;6.28;100.00
21658;BME280;10990;48.174;9.782;2023-11-19T00:37:22;92930.41;;;6.26;100.00
21658;BME280;10990;48.174;9.782;2023-11-19T00:39:48;92916.91;;;6.29;100.00
21658;BME280;10990;48.174;9.782;2023-11-19T00:42:14;92923.97;;;6.29;100.00
21658;BME280;10990;48.174;9.782;2023-11-19T00:44:40;92912.09;;;6.33;100.00
21658;BME280;10990;48.174;9.782;2023-11-19T00:47:09;92895.75;;;6.31;100.00
21658;BME280;10990;48.174;9.782;2023-11-19T00:49:35;92892.09;;;6.32;100.00
21658;BME280;10990;48.174;9.782;2023-11-19T00:52:02;92875.97;;;6.35;100.00
21658;BME280;10990;48.174;9.782;2023-11-19T00:54:28;92860.84;;;6.37;100.00
21658;BME280;10990;48.174;9.782;2023-11-19T00:56:54;92862.03;;;6.35;100.00
21658;BME280;10990;48.174;9.782;2023-11-19T00:59:21;92849.72;;;6.35;100.00
21658;BME280;10990;48.174;9.782;2023-11-19T01:01:47;92831.16;;;6.37;100.00
21658;BME280;10990;48.174;9.782;2023-11-19T01:04:16;92811.59;;;6.39;100.00
21658;BME280;10990;48.174;9.782;2023-11-19T01:06:42;92804.53;;;6.40;100.00
21658;BME280;10990;48.174;9.782;2023-11-19T01:09:08;92779.91;;;6.41;100.00
21658;BME280;10990;48.174;9.782;2023-11-19T01:11:35;92759.69;;;6.41;100.00
21658;BME280;10990;48.174;9.782;2023-11-19T01:14:01;92739.13;;;6.45;100.00
21658;BME280;10990;48.174;9.782;2023-11-19T01:16:27;92732.06;;;6.45;100.00
21658;BME280;10990;48.174;9.782;2023-11-19T01:18:53;92716.91;;;6.47;100.00
21658;BME280;10990;48.174;9.782;2023-11-19T01:21:22;92699.97;;;6.50;100.00
21658;BME280;10990;48.174;9.782;2023-11-19T01:23:48;92679.56;;;6.52;100.00
21658;BME280;10990;48.174;9.782;2023-11-19T01:26:15;92670.09;;;6.51;100.00
21658;BME280;10990;48.174;9.782;2023-11-19T01:28:41;92658.78;;;6.50;100.00
21658;BME280;10990;48.174;9.782;2023-11-19T01:31:07;92650.13;;;6.57;100.00
21658;BME280;10990;48.174;9.782;2023-11-19T01:33:34;92621.00;;;6.58;100.00
21658;BME280;10990;48.174;9.782;2023-11-19T01:36:01;92608.72;;;6.65;100.00
21658;BME280;10990;48.174;9.782;2023-11-19T01:38:30;92602.25;;;6.68;100.00
21658;BME280;10990;48.174;9.782;2023-11-19T01:40:56;92595.59;;;6.72;100.00
21658;BME280;10990;48.174;9.782;2023-11-19T01:43:35;92595.59;;;6.72;100.00
21658;BME280;10990;48.174;9.782;2023-11-19T01:46:02;92580.22;;;6.76;100.00
21658;BME280;10990;48.174;9.782;2023-11-19T01:48:30;93986.69;;;6.73;100.00
21658;BME280;10990;48.174;9.782;2023-11-19T01:50:57;94020.97;;;6.80;100.00
21658;BME280;10990;48.174;9.782;2023-11-19T01:53:23;94014.38;;;6.84;100.00
21658;BME280;10990;48.174;9.782;2023-11-19T01:55:52;94004.22;;;6.89;100.00
21658;BME280;10990;48.174;9.782;2023-11-19T01:58:19;93998.47;;;6.93;100.00
21658;BME280;10990;48.174;9.782;2023-11-19T02:00:45;93982.00;;;7.00;100.00
21658;BME280;10990;48.174;9.782;2023-11-19T02:03:12;93981.84;;;7.01;100.00
21658;BME280;10990;48.174;9.782;2023-11-19T02:05:39;93973.78;;;7.03;100.00
21658;BME280;10990;48.174;9.782;2023-11-19T02:08:06;93966.38;;;7.06;100.00
21658;BME280;10990;48.174;9.782;2023-11-19T02:10:32;93957.50;;;7.07;100.00
21658;BME280;10990;48.174;9.782;2023-11-19T02:13:02;93961.28;;;7.05;100.00
21658;BME280;10990;48.174;9.782;2023-11-19T02:15:28;93925.63;;;7.10;100.00
21658;BME280;10990;48.174;9.782;2023-11-19T02:17:54;93928.06;;;7.12;100.00
21658;BME280;10990;48.174;9.782;2023-11-19T02:20:21;93926.91;;;7.14;100.00
21658;BME280;10990;48.174;9.782;2023-11-19T02:22:47;93912.44;;;7.18;100.00
21658;BME280;10990;48.174;9.782;2023-11-19T02:25:20;93905.19;;;7.21;100.00
21658;BME280;10990;48.174;9.782;2023-11-19T02:27:54;93901.25;;;7.25;100.00
21658;BME280;10990;48.174;9.782;2023-11-19T02:30:22;93891.38;;;7.27;100.00
21658;BME280;10990;48.174;9.782;2023-11-19T02:32:48;93892.00;;;7.29;100.00
21658;BME280;10990;48.174;9.782;2023-11-19T02:35:14;93877.53;;;7.33;100.00
21658;BME280;10990;48.174;9.782;2023-11-19T02:37:40;93875.25;;;7.30;100.00
21658;BME280;10990;48.174;9.782;2023-11-19T02:40:07;93875.88;;;7.32;100.00
21658;BME280;10990;48.174;9.782;2023-11-19T02:42:33;93867.00;;;7.33;100.00
21658;BME280;10990;48.174;9.782;2023-11-19T02:45:02;93863.72;;;7.31;100.00
21658;BME280;10990;48.174;9.782;2023-11-19T02:47:29;93862.22;;;7.36;100.00
21658;BME280;10990;48.174;9.782;2023-11-19T02:49:55;93851.88;;;7.35;100.00
21658;BME280;10990;48.174;9.782;2023-11-19T02:52:21;93843.16;;;7.34;100.00
21658;BME280;10990;48.174;9.782;2023-11-19T02:54:47;93834.91;;;7.37;100.00
21658;BME280;10990;48.174;9.782;2023-11-19T02:57:13;93831.13;;;7.40;100.00
21658;BME280;10990;48.174;9.782;2023-11-19T02:59:40;93835.56;;;7.39;100.00
21658;BME280;10990;48.174;9.782;2023-11-19T03:02:09;93828.63;;;7.47;100.00
21658;BME280;10990;48.174;9.782;2023-11-19T03:04:35;93826.81;;;7.47;100.00
21658;BME280;10990;48.174;9.782;2023-11-19T03:07:01;93821.03;;;7.52;100.00
21658;BME280;10990;48.174;9.782;2023-11-19T03:09:27;93821.84;;;7.52;100.00
21658;BME280;10990;48.174;9.782;2023-11-19T03:11:53;93816.38;;;7.54;100.00
21658;BME280;10990;48.174;9.782;2023-11-19T03:14:19;93810.16;;;7.55;100.00
21658;BME280;10990;48.174;9.782;2023-11-19T03:16:46;93818.16;;;7.61;100.00
21658;BME280;10990;48.174;9.782;2023-11-19T03:19:14;93801.34;;;7.62;100.00
21658;BME280;10990;48.174;9.782;2023-11-19T03:21:41;93800.53;;;7.62;100.00
21658;BME280;10990;48.174;9.782;2023-11-19T03:24:07;93805.44;;;7.65;100.00
21658;BME280;10990;48.174;9.782;2023-11-19T03:26:33;93809.53;;;7.68;100.00
21658;BME280;10990;48.174;9.782;2023-11-19T03:28:59;93802.09;;;7.71;100.00
21658;BME280;10990;48.174;9.782;2023-11-19T03:31:25;93813.63;;;7.70;100.00
21658;BME280;10990;48.174;9.782;2023-11-19T03:33:51;93801.13;;;7.72;100.00
21658;BME280;10990;48.174;9.782;2023-11-19T03:36:20;93796.16;;;7.77;100.00
21658;BME280;10990;48.174;9.782;2023-11-19T03:38:46;93805.31;;;7.81;100.00
21658;BME280;10990;48.174;9.782;2023-11-19T03:41:12;93800.06;;;7.81;100.00
21658;BME280;10990;48.174;9.782;2023-11-19T03:43:39;93794.97;;;7.80;100.00
21658;BME280;10990;48.174;9.782;2023-11-19T03:46:16;93788.34;;;7.84;100.00
21658;BME280;10990;48.174;9.782;2023-11-19T03:48:42;93800.88;;;7.82;100.00
21658;BME280;10990;48.174;9.782;2023-11-19T03:51:08;93810.78;;;7.80;100.00
21658;BME280;10990;48.174;9.782;2023-11-19T03:53:37;93808.22;;;7.86;100.00
21658;BME280;10990;48.174;9.782;2023-11-19T03:56:03;93816.28;;;7.85;100.00
21658;BME280;10990;48.174;9.782;2023-11-19T03:58:30;93823.22;;;7.86;100.00
21658;BME280;10990;48.174;9.782;2023-11-19T04:00:56;93819.94;;;7.84;100.00
21658;BME280;10990;48.174;9.782;2023-11-19T04:03:22;93828.47;;;7.86;100.00
21658;BME280;10990;48.174;9.782;2023-11-19T04:05:49;93817.81;;;7.79;100.00
21658;BME280;10990;48.174;9.782;2023-11-19T04:08:16;93819.63;;;7.79;100.00
21658;BME280;10990;48.174;9.782;2023-11-19T04:10:44;93821.63;;;7.77;100.00
21658;BME280;10990;48.174;9.782;2023-11-19T04:13:10;93830.72;;;7.74;100.00
21658;BME280;10990;48.174;9.782;2023-11-19T04:15:37;93809.66;;;7.74;100.00
21658;BME280;10990;48.174;9.782;2023-11-19T04:18:03;93824.16;;;7.70;100.00
21658;BME280;10990;48.174;9.782;2023-11-19T04:20:29;93833.34;;;7.74;100.00
21658;BME280;10990;48.174;9.782;2023-11-19T04:22:55;93852.09;;;7.71;100.00
21658;BME280;10990;48.174;9.782;2023-11-19T04:25:21;93850.47;;;7.70;100.00
21658;BME280;10990;48.174;9.782;2023-11-19T04:27:53;93843.38;;;7.71;100.00
21658;BME280;10990;48.174;9.782;2023-11-19T04:30:19;93861.34;;;7.67;100.00
21658;BME280;10990;48.174;9.782;2023-11-19T04:32:45;93882.56;;;7.66;100.00
21658;BME280;10990;48.174;9.782;2023-11-19T04:35:11;93887.81;;;7.66;100.00
21658;BME280;10990;48.174;9.782;2023-11-19T04:37:37;93882.75;;;7.64;100.00
21658;BME280;10990;48.174;9.782;2023-11-19T04:40:04;93881.94;;;7.63;100.00
21658;BME280;10990;48.174;9.782;2023-11-19T04:42:31;93887.19;;;7.63;100.00
21658;BME280;10990;48.174;9.782;2023-11-19T04:44:59;93907.25;;;7.64;100.00
21658;BME280;10990;48.174;9.782;2023-11-19T04:47:25;93917.88;;;7.71;100.00
21658;BME280;10990;48.174;9.782;2023-11-19T04:49:51;93927.94;;;7.68;100.00
21658;BME280;10990;48.174;9.782;2023-11-19T04:52:18;93920.84;;;7.68;100.00
21658;BME280;10990;48.174;9.782;2023-11-19T04:54:44;93922.16;;;7.72;100.00
21658;BME280;10990;48.174;9.782;2023-11-19T04:57:10;93925.59;;;7.73;100.00
21658;BME280;10990;48.174;9.782;2023-11-19T04:59:36;93925.78;;;7.71;100.00
21658;BME280;10990;48.174;9.782;2023-11-19T05:02:05;93928.59;;;7.70;100.00
21658;BME280;10990;48.174;9.782;2023-11-19T05:04:31;93926.78;;;7.70;100.00
21658;BME280;10990;48.174;9.782;2023-11-19T05:06:57;93926.97;;;7.69;100.00
21658;BME280;10990;48.174;9.782;2023-11-19T05:09:24;93931.22;;;7.70;100.00
21658;BME280;10990;48.174;9.782;2023-11-19T05:11:50;93926.63;;;7.72;100.00
21658;BME280;10990;48.174;9.782;2023-11-19T05:14:16;93920.03;;;7.68;100.00
21658;BME280;10990;48.174;9.782;2023-11-19T05:16:42;93913.25;;;7.73;100.00
21658;BME280;10990;48.174;9.782;2023-11-19T05:19:11;93908.19;;;7.72;100.00
21658;BME280;10990;48.174;9.782;2023-11-19T05:21:37;93913.56;;;7.78;100.00
21658;BME280;10990;48.174;9.782;2023-11-19T05:24:03;93919.84;;;7.77;100.00
21658;BME280;10990;48.174;9.782;2023-11-19T05:26:30;93921.09;;;7.81;100.00
21658;BME280;10990;48.174;9.782;2023-11-19T05:28:56;93946.59;;;7.81;100.00
21658;BME280;10990;48.174;9.782;2023-11-19T05:31:22;93957.44;;;7.86;100.00
21658;BME280;10990;48.174;9.782;2023-11-19T05:33:48;93953.63;;;7.89;100.00
21658;BME280;10990;48.174;9.782;2023-11-19T05:36:17;93967.25;;;7.92;100.00
21658;BME280;10990;48.174;9.782;2023-11-19T05:38:43;93954.56;;;7.96;100.00
21658;BME280;10990;48.174;9.782;2023-11-19T05:41:09;93961.28;;;7.98;100.00
21658;BME280;10990;48.174;9.782;2023-11-19T05:43:35;93965.19;;;8.02;100.00
21658;BME280;10990;48.174;9.782;2023-11-19T05:46:02;93957.94;;;8.04;100.00
21658;BME280;10990;48.174;9.782;2023-11-19T05:48:28;93964.03;;;8.05;100.00
21658;BME280;10990;48.174;9.782;2023-11-19T05:50:54;93948.88;;;8.07;100.00
21658;BME280;10990;48.174;9.782;2023-11-19T05:53:23;93960.06;;;8.09;100.00
21658;BME280;10990;48.174;9.782;2023-11-19T05:55:49;93958.41;;;8.08;100.00
21658;BME280;10990;48.174;9.782;2023-11-19T05:58:15;93966.16;;;8.09;100.00
21658;BME280;10990;48.174;9.782;2023-11-19T06:00:41;93956.88;;;8.14;100.00
21658;BME280;10990;48.174;9.782;2023-11-19T06:03:07;93960.63;;;8.19;100.00
21658;BME280;10990;48.174;9.782;2023-11-19T06:05:33;93967.09;;;8.17;100.00
21658;BME280;10990;48.174;9.782;2023-11-19T06:07:59;93967.56;;;8.20;100.00
21658;BME280;10990;48.174;9.782;2023-11-19T06:10:28;93963.75;;;8.23;100.00
21658;BME280;10990;48.174;9.782;2023-11-19T06:12:54;93964.38;;;8.25;100.00
21658;BME280;10990;48.174;9.782;2023-11-19T06:15:20;93975.38;;;8.28;100.00
21658;BME280;10990;48.174;9.782;2023-11-19T06:17:46;93976.84;;;8.31;100.00
21658;BME280;10990;48.174;9.782;2023-11-19T06:20:13;93975.69;;;8.34;100.00
21658;BME280;10990;48.174;9.782;2023-11-19T06:22:39;93985.22;;;8.35;100.00
21658;BME280;10990;48.174;9.782;2023-11-19T06:25:06;93982.09;;;8.39;100.00
21658;BME280;10990;48.174;9.782;2023-11-19T06:27:35;93982.91;;;8.40;100.00
21658;BME280;10990;48.174;9.782;2023-11-19T06:30:01;93986.16;;;8.42;100.00
21658;BME280;10990;48.174;9.782;2023-11-19T06:32:27;93993.72;;;8.45;100.00
21658;BME280;10990;48.174;9.782;2023-11-19T06:34:53;93994.34;;;8.47;100.00
21658;BME280;10990;48.174;9.782;2023-11-19T06:37:19;93990.38;;;8.51;100.00
21658;BME280;10990;48.174;9.782;2023-11-19T06:39:45;93996.91;;;8.55;100.00
21658;BME280;10990;48.174;9.782;2023-11-19T06:42:11;93993.31;;;8.56;100.00
21658;BME280;10990;48.174;9.782;2023-11-19T06:44:40;93999.56;;;8.55;100.00
21658;BME280;10990;48.174;9.782;2023-11-19T06:47:06;94006.75;;;8.61;100.00
21658;BME280;10990;48.174;9.782;2023-11-19T06:49:32;94002.13;;;8.63;100.00
21658;BME280;10990;48.174;9.782;2023-11-19T06:51:58;94013.66;;;8.62;100.00
21658;BME280;10990;48.174;9.782;2023-11-19T06:54:24;94018.13;;;8.62;100.00
21658;BME280;10990;48.174;9.782;2023-11-19T06:56:51;94014.94;;;8.66;100.00
21658;BME280;10990;48.174;9.782;2023-11-19T06:59:17;94025.66;;;8.65;100.00
21658;BME280;10990;48.174;9.782;2023-11-19T07:01:45;94025.31;;;8.68;100.00
21658;BME280;10990;48.174;9.782;2023-11-19T07:04:12;94022.69;;;8.68;100.00
21658;BME280;10990;48.174;9.782;2023-11-19T07:06:38;94033.69;;;8.71;100.00
21658;BME280;10990;48.174;9.782;2023-11-19T07:09:05;94034.50;;;8.72;100.00
21658;BME280;10990;48.174;9.782;2023-11-19T07:11:31;94043.75;;;8.68;100.00
21658;BME280;10990;48.174;9.782;2023-11-19T07:13:57;94042.59;;;8.70;100.00
21658;BME280;10990;48.174;9.782;2023-11-19T07:16:23;94050.31;;;8.72;100.00
21658;BME280;10990;48.174;9.782;2023-11-19T07:18:52;94049.50;;;8.71;100.00
21658;BME280;10990;48.174;9.782;2023-11-19T07:21:18;94054.75;;;8.71;100.00
21658;BME280;10990;48.174;9.782;2023-11-19T07:23:44;94060.47;;;8.75;100.00
21658;BME280;10990;48.174;9.782;2023-11-19T07:26:10;94055.34;;;8.82;100.00
21658;BME280;10990;48.174;9.782;2023-11-19T07:28:36;94058.44;;;8.85;100.00
21658;BME280;10990;48.174;9.782;2023-11-19T07:31:03;94070.59;;;8.86;100.00
21658;BME280;10990;48.174;9.782;2023-11-19T07:33:29;94065.47;;;8.93;100.00
21658;BME280;10990;48.174;9.782;2023-11-19T07:35:58;94069.06;;;8.92;100.00
21658;BME280;10990;48.174;9.782;2023-11-19T07:38:24;94073.00;;;8.96;100.00
21658;BME280;10990;48.174;9.782;2023-11-19T07:40:50;94079.38;;;9.02;100.00
21658;BME280;10990;48.174;9.782;2023-11-19T07:43:16;94086.47;;;9.01;100.00
21658;BME280;10990;48.174;9.782;2023-11-19T07:45:42;94082.13;;;9.08;100.00
21658;BME280;10990;48.174;9.782;2023-11-19T07:48:08;94081.66;;;9.05;100.00
21658;BME280;10990;48.174;9.782;2023-11-19T07:50:35;94087.84;;;9.12;100.00
21658;BME280;10990;48.174;9.782;2023-11-19T07:53:03;94097.78;;;9.10;100.00
21658;BME280;10990;48.174;9.782;2023-11-19T07:55:29;94104.50;;;9.12;100.00
21658;BME280;10990;48.174;9.782;2023-11-19T07:57:56;94119.03;;;9.08;100.00
21658;BME280;10990;48.174;9.782;2023-11-19T08:00:22;94120.66;;;9.09;100.00
21658;BME280;10990;48.174;9.782;2023-11-19T08:02:48;94128.25;;;9.12;100.00
21658;BME280;10990;48.174;9.782;2023-11-19T08:05:14;94138.59;;;9.14;100.00
21658;BME280;10990;48.174;9.782;2023-11-19T08:07:40;94127.69;;;9.17;100.00
21658;BME280;10990;48.174;9.782;2023-11-19T08:10:09;94129.50;;;9.16;100.00
21658;BME280;10990;48.174;9.782;2023-11-19T08:12:35;94112.50;;;9.19;100.00
21658;BME280;10990;48.174;9.782;2023-11-19T08:15:01;94122.06;;;9.20;100.00
21658;BME280;10990;48.174;9.782;2023-11-19T08:17:27;94124.06;;;9.18;100.00
21658;BME280;10990;48.174;9.782;2023-11-19T08:19:54;94116.78;;;9.20;100.00
21658;BME280;10990;48.174;9.782;2023-11-19T08:22:20;94114.25;;;9.27;100.00
21658;BME280;10990;48.174;9.782;2023-11-19T08:24:46;94117.53;;;9.29;100.00
21658;BME280;10990;48.174;9.782;2023-11-19T08:27:14;94115.97;;;9.34;100.00
21658;BME280;10990;48.174;9.782;2023-11-19T08:29:41;94103.88;;;9.40;100.00
21658;BME280;10990;48.174;9.782;2023-11-19T08:32:07;94102.81;;;9.49;100.00
21658;BME280;10990;48.174;9.782;2023-11-19T08:34:33;94107.00;;;9.58;100.00
21658;BME280;10990;48.174;9.782;2023-11-19T08:36:59;94101.66;;;9.67;100.00
21658;BME280;10990;48.174;9.782;2023-11-19T08:39:25;94100.91;;;9.73;100.00
21658;BME280;10990;48.174;9.782;2023-11-19T08:41:51;94111.00;;;9.84;100.00
21658;BME280;10990;48.174;9.782;2023-11-19T08:44:20;94098.72;;;9.91;100.00
21658;BME280;10990;48.174;9.782;2023-11-19T08:46:47;94108.53;;;9.97;100.00
21658;BME280;10990;48.174;9.782;2023-11-19T08:49:13;94104.53;;;10.01;100.00
21658;BME280;10990;48.174;9.782;2023-11-19T08:51:39;94110.00;;;10.00;100.00
21658;BME280;10990;48.174;9.782;2023-11-19T08:54:06;94111.63;;;10.01;100.00
21658;BME280;10990;48.174;9.782;2023-11-19T08:56:32;94110.63;;;10.02;100.00
21658;BME280;10990;48.174;9.782;2023-11-19T08:58:58;94115.91;;;10.02;100.00
21658;BME280;10990;48.174;9.782;2023-11-19T09:01:27;94126.28;;;10.03;100.00
21658;BME280;10990;48.174;9.782;2023-11-19T09:03:53;94132.94;;;9.99;100.00
21658;BME280;10990;48.174;9.782;2023-11-19T09:06:19;94130.56;;;10.04;100.00
21658;BME280;10990;48.174;9.782;2023-11-19T09:08:45;94121.28;;;10.08;100.00
21658;BME280;10990;48.174;9.782;2023-11-19T09:11:11;94123.19;;;10.15;100.00
21658;BME280;10990;48.174;9.782;2023-11-19T09:13:37;94139.03;;;10.15;100.00
21658;BME280;10990;48.174;9.782;2023-11-19T09:16:04;94134.84;;;10.20;100.00
21658;BME280;10990;48.174;9.782;2023-11-19T09:18:33;94136.28;;;10.23;100.00
21658;BME280;10990;48.174;9.782;2023-11-19T09:20:59;94133.66;;;10.38;100.00
21658;BME280;10990;48.174;9.782;2023-11-19T09:23:25;94129.72;;;10.48;100.00
21658;BME280;10990;48.174;9.782;2023-11-19T09:25:51;94106.81;;;10.77;100.00
21658;BME280;10990;48.174;9.782;2023-11-19T09:28:17;94130.84;;;10.61;100.00
21658;BME280;10990;48.174;9.782;2023-11-19T09:30:43;94119.22;;;10.76;100.00
21658;BME280;10990;48.174;9.782;2023-11-19T09:33:09;94137.63;;;10.85;100.00
21658;BME280;10990;48.174;9.782;2023-11-19T09:35:38;94135.66;;;10.93;100.00
21658;BME280;10990;48.174;9.782;2023-11-19T09:38:04;94140.19;;;10.99;100.00
21658;BME280;10990;48.174;9.782;2023-11-19T09:40:30;94134.38;;;11.11;100.00
21658;BME280;10990;48.174;9.782;2023-11-19T09:42:56;94145.47;;;11.21;100.00
21658;BME280;10990;48.174;9.782;2023-11-19T09:45:27;94152.22;;;11.24;100.00
21658;BME280;10990;48.174;9.782;2023-11-19T09:47:55;94155.03;;;11.22;100.00
21658;BME280;10990;48.174;9.782;2023-11-19T09:50:23;94156.66;;;11.23;100.00
21658;BME280;10990;48.174;9.782;2023-11-19T09:52:52;94155.38;;;11.12;100.00
21658;BME280;10990;48.174;9.782;2023-11-19T09:55:18;94164.69;;;11.08;100.00
21658;BME280;10990;48.174;9.782;2023-11-19T09:57:44;94183.19;;;11.08;100.00
21658;BME280;10990;48.174;9.782;2023-11-19T10:00:13;94177.09;;;11.08;100.00
21658;BME280;10990;48.174;9.782;2023-11-19T10:02:41;94178.94;;;11.07;100.00
21658;BME280;10990;48.174;9.782;2023-11-19T10:05:09;94179.91;;;11.06;100.00
21658;BME280;10990;48.174;9.782;2023-11-19T10:07:35;94175.09;;;11.10;100.00
21658;BME280;10990;48.174;9.782;2023-11-19T10:10:05;94183.03;;;11.10;100.00
21658;BME280;10990;48.174;9.782;2023-11-19T10:12:31;94180.00;;;11.13;100.00
21658;BME280;10990;48.174;9.782;2023-11-19T10:14:58;94175.78;;;11.18;100.00
21658;BME280;10990;48.174;9.782;2023-11-19T10:17:28;94164.81;;;11.21;100.00
21658;BME280;10990;48.174;9.782;2023-11-19T10:19:54;94172.22;;;11.33;100.00
21658;BME280;10990;48.174;9.782;2023-11-19T10:22:20;94174.53;;;11.42;100.00
21658;BME280;10990;48.174;9.782;2023-11-19T10:24:48;94174.16;;;11.45;100.00
21658;BME280;10990;48.174;9.782;2023-11-19T10:27:16;94163.19;;;11.49;100.00
21658;BME280;10990;48.174;9.782;2023-11-19T10:29:45;94161.56;;;11.48;100.00
21658;BME280;10990;48.174;9.782;2023-11-19T10:32:12;94073.22;;;12.38;100.00
21658;BME280;10990;48.174;9.782;2023-11-19T10:34:38;94105.31;;;12.56;100.00
21658;BME280;10990;48.174;9.782;2023-11-19T10:37:04;94141.34;;;12.38;100.00
21658;BME280;10990;48.174;9.782;2023-11-19T10:39:51;94147.03;;;12.34;100.00
21658;BME280;10990;48.174;9.782;2023-11-19T10:42:20;94137.88;;;12.44;100.00
21658;BME280;10990;48.174;9.782;2023-11-19T10:44:46;94137.81;;;12.78;100.00
21658;BME280;10990;48.174;9.782;2023-11-19T10:47:14;94149.34;;;12.57;100.00
21658;BME280;10990;48.174;9.782;2023-11-19T10:49:40;94143.94;;;12.86;100.00
21658;BME280;10990;48.174;9.782;2023-11-19T10:52:08;94143.13;;;12.92;100.00
21658;BME280;10990;48.174;9.782;2023-11-19T10:54:34;94154.41;;;13.07;100.00
21658;BME280;10990;48.174;9.782;2023-11-19T10:57:02;94169.47;;;13.00;100.00
21658;BME280;10990;48.174;9.782;2023-11-19T10:59:31;94198.38;;;12.68;100.00
21658;BME280;10990;48.174;9.782;2023-11-19T11:01:59;94210.59;;;12.63;100.00
21658;BME280;10990;48.174;9.782;2023-11-19T11:04:26;94212.59;;;12.54;100.00
21658;BME280;10990;48.174;9.782;2023-11-19T11:06:55;94203.59;;;12.55;100.00
21658;BME280;10990;48.174;9.782;2023-11-19T11:09:21;94202.38;;;12.51;100.00
21658;BME280;10990;48.174;9.782;2023-11-19T11:11:47;94192.19;;;12.54;100.00
21658;BME280;10990;48.174;9.782;2023-11-19T11:14:14;94191.44;;;12.74;100.00
21658;BME280;10990;48.174;9.782;2023-11-19T11:16:46;94206.31;;;12.68;100.00
21658;BME280;10990;48.174;9.782;2023-11-19T11:19:15;94205.94;;;12.71;100.00
21658;BME280;10990;48.174;9.782;2023-11-19T11:21:43;94208.75;;;12.63;100.00
21658;BME280;10990;48.174;9.782;2023-11-19T11:24:42;94217.13;;;12.67;100.00
21658;BME280;10990;48.174;9.782;2023-11-19T11:30:20;94218.22;;;12.86;100.00
21658;BME280;10990;48.174;9.782;2023-11-19T11:33:00;94238.31;;;12.60;100.00
21658;BME280;10990;48.174;9.782;2023-11-19T11:35:38;94230.94;;;12.49;100.00
21658;BME280;10990;48.174;9.782;2023-11-19T11:38:09;94240.69;;;12.42;100.00
21658;BME280;10990;48.174;9.782;2023-11-19T11:40:35;94232.63;;;12.63;100.00
21658;BME280;10990;48.174;9.782;2023-11-19T11:43:01;94231.38;;;13.07;100.00
21658;BME280;10990;48.174;9.782;2023-11-19T11:45:38;94240.63;;;13.31;100.00
21658;BME280;10990;48.174;9.782;2023-11-19T11:48:12;94244.88;;;13.19;100.00
21658;BME280;10990;48.174;9.782;2023-11-19T11:50:54;94246.09;;;13.23;100.00
21658;BME280;10990;48.174;9.782;2023-11-19T11:53:22;94252.19;;;13.04;100.00
21658;BME280;10990;48.174;9.782;2023-11-19T11:55:57;94269.09;;;13.02;100.00
21658;BME280;10990;48.174;9.782;2023-11-19T11:58:27;94265.47;;;13.17;100.00
21658;BME280;10990;48.174;9.782;2023-11-19T12:00:57;94270.94;;;12.95;100.00
21658;BME280;10990;48.174;9.782;2023-11-19T12:03:27;94273.38;;;12.97;100.00
21658;BME280;10990;48.174;9.782;2023-11-19T12:05:54;94258.31;;;13.17;100.00
21658;BME280;10990;48.174;9.782;2023-11-19T12:08:25;94264.25;;;13.19;100.00
21658;BME280;10990;48.174;9.782;2023-11-19T12:10:53;94248.91;;;13.01;100.00
21658;BME280;10990;48.174;9.782;2023-11-19T12:13:20;94233.66;;;13.23;100.00
21658;BME280;10990;48.174;9.782;2023-11-19T12:16:07;94216.53;;;13.33;100.00
21658;BME280;10990;48.174;9.782;2023-11-19T12:18:39;94223.69;;;13.39;100.00
21658;BME280;10990;48.174;9.782;2023-11-19T12:21:05;94224.72;;;13.44;100.00
21658;BME280;10990;48.174;9.782;2023-11-19T12:23:32;94216.56;;;13.46;100.00
21658;BME280;10990;48.174;9.782;2023-11-19T12:25:58;94240.47;;;13.46;100.00
21658;BME280;10990;48.174;9.782;2023-11-19T12:28:25;94232.28;;;13.48;100.00
21658;BME280;10990;48.174;9.782;2023-11-19T12:30:51;94232.09;;;13.56;100.00
21658;BME280;10990;48.174;9.782;2023-11-19T12:33:17;94219.00;;;13.54;100.00
21658;BME280;10990;48.174;9.782;2023-11-19T12:35:47;94210.03;;;13.55;100.00
21658;BME280;10990;48.174;9.782;2023-11-19T12:38:19;94210.03;;;13.68;100.00
21658;BME280;10990;48.174;9.782;2023-11-19T12:40:45;94203.91;;;13.61;100.00
21658;BME280;10990;48.174;9.782;2023-11-19T12:43:21;94192.44;;;13.67;100.00
21658;BME280;10990;48.174;9.782;2023-11-19T12:45:47;94196.13;;;13.66;100.00
21658;BME280;10990;48.174;9.782;2023-11-19T12:48:13;94200.84;;;13.64;100.00
21658;BME280;10990;48.174;9.782;2023-11-19T12:50:55;94192.66;;;13.73;100.00
21658;BME280;10990;48.174;9.782;2023-11-19T12:53:22;94190.19;;;13.71;100.00
21658;BME280;10990;48.174;9.782;2023-11-19T12:55:49;94190.00;;;13.73;100.00
21658;BME280;10990;48.174;9.782;2023-11-19T12:58:30;94188.38;;;13.72;100.00
21658;BME280;10990;48.174;9.782;2023-11-19T13:01:00;94187.97;;;13.75;100.00